sensor_id;sensor_type;location;lat;lon;timestamp;temperature;humidity
47546;DHT22;50104;52.002;4.688;2022-08-19T00:02:43;20.60;76.20
47546;DHT22;50104;52.002;4.688;2022-08-19T00:07:44;20.50;76.20
47546;DHT22;50104;52.002;4.688;2022-08-19T00:12:45;20.50;76.00
47546;DHT22;50104;52.002;4.688;2022-08-19T00:17:47;20.40;76.30
47546;DHT22;50104;52.002;4.688;2022-08-19T00:22:48;20.30;76.30
47546;DHT22;50104;52.002;4.688;2022-08-19T00:27:49;20.30;76.30
47546;DHT22;50104;52.002;4.688;2022-08-19T00:32:50;20.20;76.40
47546;DHT22;50104;52.002;4.688;2022-08-19T00:37:50;20.20;76.30
47546;DHT22;50104;52.002;4.688;2022-08-19T00:42:52;20.10;77.00
47546;DHT22;50104;52.002;4.688;2022-08-19T00:47:55;20.00;76.90
47546;DHT22;50104;52.002;4.688;2022-08-19T00:52:56;20.00;77.10
47546;DHT22;50104;52.002;4.688;2022-08-19T00:58:02;20.00;77.30
47546;DHT22;50104;52.002;4.688;2022-08-19T01:03:08;19.90;77.60
47546;DHT22;50104;52.002;4.688;2022-08-19T01:08:11;19.90;77.40
47546;DHT22;50104;52.002;4.688;2022-08-19T01:13:15;19.80;78.00
47546;DHT22;50104;52.002;4.688;2022-08-19T01:18:19;19.80;77.60
47546;DHT22;50104;52.002;4.688;2022-08-19T01:23:21;19.70;77.80
47546;DHT22;50104;52.002;4.688;2022-08-19T01:28:44;19.70;77.90
47546;DHT22;50104;52.002;4.688;2022-08-19T01:33:46;19.60;78.40
47546;DHT22;50104;52.002;4.688;2022-08-19T01:38:47;19.60;78.30
47546;DHT22;50104;52.002;4.688;2022-08-19T01:43:49;19.60;78.30
47546;DHT22;50104;52.002;4.688;2022-08-19T01:48:51;19.50;78.70
47546;DHT22;50104;52.002;4.688;2022-08-19T01:53:53;19.50;78.40
47546;DHT22;50104;52.002;4.688;2022-08-19T01:59:00;19.50;78.90
47546;DHT22;50104;52.002;4.688;2022-08-19T02:04:03;19.40;78.50
47546;DHT22;50104;52.002;4.688;2022-08-19T02:09:05;19.40;78.50
47546;DHT22;50104;52.002;4.688;2022-08-19T02:14:07;19.40;78.40
47546;DHT22;50104;52.002;4.688;2022-08-19T02:19:08;19.30;78.30
47546;DHT22;50104;52.002;4.688;2022-08-19T02:24:10;19.30;78.80
47546;DHT22;50104;52.002;4.688;2022-08-19T02:29:12;19.30;79.10
47546;DHT22;50104;52.002;4.688;2022-08-19T02:34:13;19.20;78.90
47546;DHT22;50104;52.002;4.688;2022-08-19T02:39:14;19.20;78.60
47546;DHT22;50104;52.002;4.688;2022-08-19T02:44:15;19.20;79.40
47546;DHT22;50104;52.002;4.688;2022-08-19T02:49:16;19.10;79.80
47546;DHT22;50104;52.002;4.688;2022-08-19T02:54:17;19.10;80.30
47546;DHT22;50104;52.002;4.688;2022-08-19T02:59:18;19.00;80.50
47546;DHT22;50104;52.002;4.688;2022-08-19T03:04:19;19.00;80.10
47546;DHT22;50104;52.002;4.688;2022-08-19T03:09:20;19.00;79.70
47546;DHT22;50104;52.002;4.688;2022-08-19T03:14:21;19.00;79.80
47546;DHT22;50104;52.002;4.688;2022-08-19T03:19:21;18.90;79.80
47546;DHT22;50104;52.002;4.688;2022-08-19T03:24:23;18.90;79.80
47546;DHT22;50104;52.002;4.688;2022-08-19T03:29:28;18.90;79.60
47546;DHT22;50104;52.002;4.688;2022-08-19T03:34:33;18.80;79.60
47546;DHT22;50104;52.002;4.688;2022-08-19T03:39:36;18.80;79.70
47546;DHT22;50104;52.002;4.688;2022-08-19T03:44:38;18.80;79.60
47546;DHT22;50104;52.002;4.688;2022-08-19T03:49:39;18.70;80.30
47546;DHT22;50104;52.002;4.688;2022-08-19T03:54:41;18.70;80.50
47546;DHT22;50104;52.002;4.688;2022-08-19T03:59:42;18.70;80.40
47546;DHT22;50104;52.002;4.688;2022-08-19T04:04:44;18.70;80.60
47546;DHT22;50104;52.002;4.688;2022-08-19T04:09:44;18.60;80.50
47546;DHT22;50104;52.002;4.688;2022-08-19T04:14:46;18.60;80.80
47546;DHT22;50104;52.002;4.688;2022-08-19T04:19:47;18.60;81.10
47546;DHT22;50104;52.002;4.688;2022-08-19T04:24:47;18.60;81.90
47546;DHT22;50104;52.002;4.688;2022-08-19T04:29:48;18.60;81.70
47546;DHT22;50104;52.002;4.688;2022-08-19T04:34:49;18.50;81.70
47546;DHT22;50104;52.002;4.688;2022-08-19T04:39:50;18.60;82.20
47546;DHT22;50104;52.002;4.688;2022-08-19T04:45:13;18.60;83.00
47546;DHT22;50104;52.002;4.688;2022-08-19T04:50:15;18.60;83.60
47546;DHT22;50104;52.002;4.688;2022-08-19T04:55:16;18.60;83.90
47546;DHT22;50104;52.002;4.688;2022-08-19T05:00:18;18.60;84.80
47546;DHT22;50104;52.002;4.688;2022-08-19T05:05:19;18.60;85.10
47546;DHT22;50104;52.002;4.688;2022-08-19T05:10:20;18.60;85.30
47546;DHT22;50104;52.002;4.688;2022-08-19T05:15:21;18.70;85.50
47546;DHT22;50104;52.002;4.688;2022-08-19T05:20:22;18.80;85.90
47546;DHT22;50104;52.002;4.688;2022-08-19T05:25:41;18.90;85.50
47546;DHT22;50104;52.002;4.688;2022-08-19T05:30:43;18.90;85.80
47546;DHT22;50104;52.002;4.688;2022-08-19T05:35:45;19.00;85.70
47546;DHT22;50104;52.002;4.688;2022-08-19T05:40:46;19.10;86.00
47546;DHT22;50104;52.002;4.688;2022-08-19T05:45:49;19.20;85.80
47546;DHT22;50104;52.002;4.688;2022-08-19T05:50:51;19.30;85.90
47546;DHT22;50104;52.002;4.688;2022-08-19T05:55:52;19.40;85.60
47546;DHT22;50104;52.002;4.688;2022-08-19T06:01:30;19.50;85.40
47546;DHT22;50104;52.002;4.688;2022-08-19T06:06:32;19.60;85.50
47546;DHT22;50104;52.002;4.688;2022-08-19T06:11:38;19.70;85.40
47546;DHT22;50104;52.002;4.688;2022-08-19T06:16:44;19.80;85.30
47546;DHT22;50104;52.002;4.688;2022-08-19T06:21:47;19.90;85.10
47546;DHT22;50104;52.002;4.688;2022-08-19T06:26:52;20.00;84.60
47546;DHT22;50104;52.002;4.688;2022-08-19T06:31:56;20.10;84.30
47546;DHT22;50104;52.002;4.688;2022-08-19T06:36:59;20.20;84.10
47546;DHT22;50104;52.002;4.688;2022-08-19T06:42:05;20.30;84.40
47546;DHT22;50104;52.002;4.688;2022-08-19T06:47:12;20.40;84.70
47546;DHT22;50104;52.002;4.688;2022-08-19T06:52:14;20.50;84.70
47546;DHT22;50104;52.002;4.688;2022-08-19T06:57:15;20.60;85.10
47546;DHT22;50104;52.002;4.688;2022-08-19T07:02:16;20.80;84.90
47546;DHT22;50104;52.002;4.688;2022-08-19T07:07:19;21.00;84.40
47546;DHT22;50104;52.002;4.688;2022-08-19T07:12:21;21.20;83.80
47546;DHT22;50104;52.002;4.688;2022-08-19T07:17:21;21.40;83.30
47546;DHT22;50104;52.002;4.688;2022-08-19T07:22:22;21.50;82.60
47546;DHT22;50104;52.002;4.688;2022-08-19T07:27:24;21.70;82.70
47546;DHT22;50104;52.002;4.688;2022-08-19T07:32:25;21.80;82.30
47546;DHT22;50104;52.002;4.688;2022-08-19T07:37:27;21.90;82.40
47546;DHT22;50104;52.002;4.688;2022-08-19T07:42:29;22.00;82.30
47546;DHT22;50104;52.002;4.688;2022-08-19T07:47:30;22.10;82.40
47546;DHT22;50104;52.002;4.688;2022-08-19T07:52:31;22.30;82.60
47546;DHT22;50104;52.002;4.688;2022-08-19T07:57:32;22.40;82.00
47546;DHT22;50104;52.002;4.688;2022-08-19T08:02:32;22.60;82.00
47546;DHT22;50104;52.002;4.688;2022-08-19T08:07:33;22.70;82.10
47546;DHT22;50104;52.002;4.688;2022-08-19T08:12:53;22.90;81.00
47546;DHT22;50104;52.002;4.688;2022-08-19T08:17:55;23.00;80.60
47546;DHT22;50104;52.002;4.688;2022-08-19T08:23:00;23.10;80.20
47546;DHT22;50104;52.002;4.688;2022-08-19T08:28:20;23.20;80.30
47546;DHT22;50104;52.002;4.688;2022-08-19T08:33:23;23.20;80.00
47546;DHT22;50104;52.002;4.688;2022-08-19T08:38:25;23.30;79.90
47546;DHT22;50104;52.002;4.688;2022-08-19T08:43:36;23.30;80.10
47546;DHT22;50104;52.002;4.688;2022-08-19T08:54:23;23.50;79.50
47546;DHT22;50104;52.002;4.688;2022-08-19T08:59:31;23.50;79.60
47546;DHT22;50104;52.002;4.688;2022-08-19T09:04:36;23.60;79.10
47546;DHT22;50104;52.002;4.688;2022-08-19T09:09:45;23.60;79.10
47546;DHT22;50104;52.002;4.688;2022-08-19T09:14:53;23.70;79.60
47546;DHT22;50104;52.002;4.688;2022-08-19T09:20:02;23.80;80.00
47546;DHT22;50104;52.002;4.688;2022-08-19T09:25:13;23.90;80.60
47546;DHT22;50104;52.002;4.688;2022-08-19T09:30:22;24.10;80.70
47546;DHT22;50104;52.002;4.688;2022-08-19T09:35:26;24.30;80.30
47546;DHT22;50104;52.002;4.688;2022-08-19T09:40:29;24.50;80.10
47546;DHT22;50104;52.002;4.688;2022-08-19T09:45:31;24.80;79.30
47546;DHT22;50104;52.002;4.688;2022-08-19T09:50:32;25.00;78.70
47546;DHT22;50104;52.002;4.688;2022-08-19T09:55:35;25.30;78.30
47546;DHT22;50104;52.002;4.688;2022-08-19T10:00:37;25.50;77.00
47546;DHT22;50104;52.002;4.688;2022-08-19T10:05:38;25.70;76.00
47546;DHT22;50104;52.002;4.688;2022-08-19T10:10:49;25.80;75.00
47546;DHT22;50104;52.002;4.688;2022-08-19T10:15:52;25.90;75.00
47546;DHT22;50104;52.002;4.688;2022-08-19T10:21:07;25.90;74.50
47546;DHT22;50104;52.002;4.688;2022-08-19T10:26:09;25.90;74.10
47546;DHT22;50104;52.002;4.688;2022-08-19T10:31:19;25.80;74.10
47546;DHT22;50104;52.002;4.688;2022-08-19T10:36:23;25.80;74.50
47546;DHT22;50104;52.002;4.688;2022-08-19T10:41:31;25.60;74.50
47546;DHT22;50104;52.002;4.688;2022-08-19T10:46:38;25.60;75.30
47546;DHT22;50104;52.002;4.688;2022-08-19T10:51:42;25.60;75.50
47546;DHT22;50104;52.002;4.688;2022-08-19T10:57:01;25.60;75.50
47546;DHT22;50104;52.002;4.688;2022-08-19T11:02:05;25.60;75.50
47546;DHT22;50104;52.002;4.688;2022-08-19T11:07:08;25.70;75.90
47546;DHT22;50104;52.002;4.688;2022-08-19T11:12:10;25.80;75.80
47546;DHT22;50104;52.002;4.688;2022-08-19T11:17:13;25.90;75.20
47546;DHT22;50104;52.002;4.688;2022-08-19T11:22:14;26.10;74.20
47546;DHT22;50104;52.002;4.688;2022-08-19T11:27:15;26.20;73.10
47546;DHT22;50104;52.002;4.688;2022-08-19T11:32:16;26.30;72.00
47546;DHT22;50104;52.002;4.688;2022-08-19T11:37:17;26.30;71.70
47546;DHT22;50104;52.002;4.688;2022-08-19T11:42:17;26.20;71.60
47546;DHT22;50104;52.002;4.688;2022-08-19T11:47:37;26.20;71.90
47546;DHT22;50104;52.002;4.688;2022-08-19T11:52:40;26.10;72.30
47546;DHT22;50104;52.002;4.688;2022-08-19T11:57:42;26.00;73.00
47546;DHT22;50104;52.002;4.688;2022-08-19T12:02:44;25.90;73.40
47546;DHT22;50104;52.002;4.688;2022-08-19T12:07:46;25.90;73.50
47546;DHT22;50104;52.002;4.688;2022-08-19T12:12:47;26.00;73.50
47546;DHT22;50104;52.002;4.688;2022-08-19T12:17:48;26.00;73.60
47546;DHT22;50104;52.002;4.688;2022-08-19T12:22:49;26.10;73.20
47546;DHT22;50104;52.002;4.688;2022-08-19T12:27:50;26.20;73.00
47546;DHT22;50104;52.002;4.688;2022-08-19T12:32:52;26.20;72.40
47546;DHT22;50104;52.002;4.688;2022-08-19T12:37:53;26.30;72.20
47546;DHT22;50104;52.002;4.688;2022-08-19T12:42:54;26.40;72.20
47546;DHT22;50104;52.002;4.688;2022-08-19T12:47:55;26.50;71.20
47546;DHT22;50104;52.002;4.688;2022-08-19T12:52:57;26.50;70.90
47546;DHT22;50104;52.002;4.688;2022-08-19T12:57:58;26.60;70.60
47546;DHT22;50104;52.002;4.688;2022-08-19T13:03:02;26.50;70.50
47546;DHT22;50104;52.002;4.688;2022-08-19T13:08:03;26.50;70.90
47546;DHT22;50104;52.002;4.688;2022-08-19T13:13:08;26.50;71.60
47546;DHT22;50104;52.002;4.688;2022-08-19T13:18:11;26.50;72.20
47546;DHT22;50104;52.002;4.688;2022-08-19T13:23:12;26.50;72.60
47546;DHT22;50104;52.002;4.688;2022-08-19T13:28:14;26.50;72.70
47546;DHT22;50104;52.002;4.688;2022-08-19T13:33:14;26.50;72.90
47546;DHT22;50104;52.002;4.688;2022-08-19T13:38:21;26.50;73.00
47546;DHT22;50104;52.002;4.688;2022-08-19T13:43:25;26.50;72.90
47546;DHT22;50104;52.002;4.688;2022-08-19T13:48:28;26.50;72.70
47546;DHT22;50104;52.002;4.688;2022-08-19T13:53:28;26.50;72.60
47546;DHT22;50104;52.002;4.688;2022-08-19T13:58:31;26.40;72.60
47546;DHT22;50104;52.002;4.688;2022-08-19T14:03:32;26.30;73.00
47546;DHT22;50104;52.002;4.688;2022-08-19T14:08:34;26.30;73.10
47546;DHT22;50104;52.002;4.688;2022-08-19T14:13:35;26.20;73.30
47546;DHT22;50104;52.002;4.688;2022-08-19T14:18:37;26.20;73.40
47546;DHT22;50104;52.002;4.688;2022-08-19T14:23:39;26.10;73.40
47546;DHT22;50104;52.002;4.688;2022-08-19T14:28:40;26.10;73.40
47546;DHT22;50104;52.002;4.688;2022-08-19T14:33:42;26.00;73.80
47546;DHT22;50104;52.002;4.688;2022-08-19T14:38:43;25.90;74.30
47546;DHT22;50104;52.002;4.688;2022-08-19T14:43:49;25.80;74.80
47546;DHT22;50104;52.002;4.688;2022-08-19T14:48:51;25.80;75.10
47546;DHT22;50104;52.002;4.688;2022-08-19T14:53:53;25.80;75.10
47546;DHT22;50104;52.002;4.688;2022-08-19T14:58:55;25.80;75.10
47546;DHT22;50104;52.002;4.688;2022-08-19T15:03:59;25.70;75.60
47546;DHT22;50104;52.002;4.688;2022-08-19T15:09:00;25.70;76.00
47546;DHT22;50104;52.002;4.688;2022-08-19T15:14:02;25.70;75.60
47546;DHT22;50104;52.002;4.688;2022-08-19T15:19:03;25.70;75.20
47546;DHT22;50104;52.002;4.688;2022-08-19T15:24:04;25.70;75.00
47546;DHT22;50104;52.002;4.688;2022-08-19T15:29:05;25.80;74.20
47546;DHT22;50104;52.002;4.688;2022-08-19T15:34:07;25.90;73.70
47546;DHT22;50104;52.002;4.688;2022-08-19T15:39:08;26.00;73.80
47546;DHT22;50104;52.002;4.688;2022-08-19T15:44:13;26.00;73.60
47546;DHT22;50104;52.002;4.688;2022-08-19T15:49:17;26.00;73.60
47546;DHT22;50104;52.002;4.688;2022-08-19T15:54:20;26.10;73.60
47546;DHT22;50104;52.002;4.688;2022-08-19T15:59:21;26.00;73.90
47546;DHT22;50104;52.002;4.688;2022-08-19T16:04:40;25.90;73.70
47546;DHT22;50104;52.002;4.688;2022-08-19T16:10:00;25.80;73.60
47546;DHT22;50104;52.002;4.688;2022-08-19T16:15:01;25.60;73.80
47546;DHT22;50104;52.002;4.688;2022-08-19T16:20:05;25.50;74.10
47546;DHT22;50104;52.002;4.688;2022-08-19T16:25:13;25.30;74.60
47546;DHT22;50104;52.002;4.688;2022-08-19T16:30:14;25.10;75.00
47546;DHT22;50104;52.002;4.688;2022-08-19T16:35:15;25.00;75.60
47546;DHT22;50104;52.002;4.688;2022-08-19T16:40:16;24.90;76.30
47546;DHT22;50104;52.002;4.688;2022-08-19T16:45:17;24.90;76.90
47546;DHT22;50104;52.002;4.688;2022-08-19T16:50:19;24.90;77.50
47546;DHT22;50104;52.002;4.688;2022-08-19T16:55:21;25.00;77.90
47546;DHT22;50104;52.002;4.688;2022-08-19T17:00:22;25.10;77.80
47546;DHT22;50104;52.002;4.688;2022-08-19T17:05:23;25.20;77.30
47546;DHT22;50104;52.002;4.688;2022-08-19T17:10:24;25.30;76.80
47546;DHT22;50104;52.002;4.688;2022-08-19T17:15:25;25.40;76.40
47546;DHT22;50104;52.002;4.688;2022-08-19T17:20:26;25.40;76.20
47546;DHT22;50104;52.002;4.688;2022-08-19T17:25:28;25.40;75.80
47546;DHT22;50104;52.002;4.688;2022-08-19T17:30:32;25.50;75.50
47546;DHT22;50104;52.002;4.688;2022-08-19T17:35:34;25.40;75.30
47546;DHT22;50104;52.002;4.688;2022-08-19T17:40:35;25.40;75.00
47546;DHT22;50104;52.002;4.688;2022-08-19T17:45:37;25.40;74.90
47546;DHT22;50104;52.002;4.688;2022-08-19T17:50:39;25.40;74.70
47546;DHT22;50104;52.002;4.688;2022-08-19T17:55:41;25.30;74.50
47546;DHT22;50104;52.002;4.688;2022-08-19T18:00:41;25.30;74.40
47546;DHT22;50104;52.002;4.688;2022-08-19T18:05:43;25.20;74.40
47546;DHT22;50104;52.002;4.688;2022-08-19T18:10:44;25.10;74.40
47546;DHT22;50104;52.002;4.688;2022-08-19T18:15:44;25.00;74.30
47546;DHT22;50104;52.002;4.688;2022-08-19T18:20:46;24.90;74.40
47546;DHT22;50104;52.002;4.688;2022-08-19T18:25:48;24.80;74.60
47546;DHT22;50104;52.002;4.688;2022-08-19T18:30:51;24.70;74.80
47546;DHT22;50104;52.002;4.688;2022-08-19T18:35:52;24.50;75.10
47546;DHT22;50104;52.002;4.688;2022-08-19T18:40:53;24.40;75.20
47546;DHT22;50104;52.002;4.688;2022-08-19T18:46:12;24.30;75.20
47546;DHT22;50104;52.002;4.688;2022-08-19T18:51:31;24.20;75.50
47546;DHT22;50104;52.002;4.688;2022-08-19T18:56:33;24.10;75.60
47546;DHT22;50104;52.002;4.688;2022-08-19T19:01:37;24.10;75.90
47546;DHT22;50104;52.002;4.688;2022-08-19T19:06:40;24.00;75.90
47546;DHT22;50104;52.002;4.688;2022-08-19T19:11:45;24.00;76.10
47546;DHT22;50104;52.002;4.688;2022-08-19T19:16:48;23.90;76.20
47546;DHT22;50104;52.002;4.688;2022-08-19T19:21:49;23.80;76.30
47546;DHT22;50104;52.002;4.688;2022-08-19T19:26:51;23.80;76.40
47546;DHT22;50104;52.002;4.688;2022-08-19T19:31:53;23.70;76.70
47546;DHT22;50104;52.002;4.688;2022-08-19T19:36:55;23.60;76.80
47546;DHT22;50104;52.002;4.688;2022-08-19T19:41:56;23.60;76.80
47546;DHT22;50104;52.002;4.688;2022-08-19T19:46:57;23.50;76.80
47546;DHT22;50104;52.002;4.688;2022-08-19T19:51:59;23.50;76.80
47546;DHT22;50104;52.002;4.688;2022-08-19T19:57:00;23.40;77.10
47546;DHT22;50104;52.002;4.688;2022-08-19T20:02:01;23.40;76.90
47546;DHT22;50104;52.002;4.688;2022-08-19T20:07:01;23.30;77.00
47546;DHT22;50104;52.002;4.688;2022-08-19T20:12:03;23.30;77.30
47546;DHT22;50104;52.002;4.688;2022-08-19T20:17:04;23.20;77.40
47546;DHT22;50104;52.002;4.688;2022-08-19T20:22:05;23.20;77.40
47546;DHT22;50104;52.002;4.688;2022-08-19T20:27:06;23.20;77.50
47546;DHT22;50104;52.002;4.688;2022-08-19T20:32:09;23.10;77.60
47546;DHT22;50104;52.002;4.688;2022-08-19T20:37:10;23.10;77.70
47546;DHT22;50104;52.002;4.688;2022-08-19T20:42:10;23.00;77.60
47546;DHT22;50104;52.002;4.688;2022-08-19T20:47:12;23.00;77.70
47546;DHT22;50104;52.002;4.688;2022-08-19T20:52:13;23.00;77.70
47546;DHT22;50104;52.002;4.688;2022-08-19T20:57:14;22.90;77.80
47546;DHT22;50104;52.002;4.688;2022-08-19T21:02:16;22.90;77.70
47546;DHT22;50104;52.002;4.688;2022-08-19T21:07:17;22.80;78.00
47546;DHT22;50104;52.002;4.688;2022-08-19T21:12:18;22.80;78.20
47546;DHT22;50104;52.002;4.688;2022-08-19T21:17:19;22.80;78.10
47546;DHT22;50104;52.002;4.688;2022-08-19T21:22:21;22.70;78.10
47546;DHT22;50104;52.002;4.688;2022-08-19T21:27:22;22.70;78.20
47546;DHT22;50104;52.002;4.688;2022-08-19T21:32:23;22.70;78.10
47546;DHT22;50104;52.002;4.688;2022-08-19T21:37:24;22.70;78.30
47546;DHT22;50104;52.002;4.688;2022-08-19T21:42:24;22.60;78.40
47546;DHT22;50104;52.002;4.688;2022-08-19T21:47:25;22.60;78.40
47546;DHT22;50104;52.002;4.688;2022-08-19T21:52:26;22.60;78.30
47546;DHT22;50104;52.002;4.688;2022-08-19T21:57:27;22.60;78.40
47546;DHT22;50104;52.002;4.688;2022-08-19T22:02:28;22.60;78.40
47546;DHT22;50104;52.002;4.688;2022-08-19T22:07:31;22.50;78.50
47546;DHT22;50104;52.002;4.688;2022-08-19T22:12:52;22.50;78.50
47546;DHT22;50104;52.002;4.688;2022-08-19T22:18:09;22.50;79.10
47546;DHT22;50104;52.002;4.688;2022-08-19T22:23:11;22.40;79.30
47546;DHT22;50104;52.002;4.688;2022-08-19T22:28:22;22.40;79.20
47546;DHT22;50104;52.002;4.688;2022-08-19T22:33:24;22.40;79.10
47546;DHT22;50104;52.002;4.688;2022-08-19T22:38:46;22.40;79.10
47546;DHT22;50104;52.002;4.688;2022-08-19T22:43:48;22.40;79.40
47546;DHT22;50104;52.002;4.688;2022-08-19T22:48:48;22.30;79.60
47546;DHT22;50104;52.002;4.688;2022-08-19T22:53:49;22.30;79.60
47546;DHT22;50104;52.002;4.688;2022-08-19T22:58:51;22.30;79.60
47546;DHT22;50104;52.002;4.688;2022-08-19T23:03:51;22.30;79.80
47546;DHT22;50104;52.002;4.688;2022-08-19T23:08:53;22.20;79.70
47546;DHT22;50104;52.002;4.688;2022-08-19T23:13:55;22.20;79.80
47546;DHT22;50104;52.002;4.688;2022-08-19T23:18:56;22.10;79.70
47546;DHT22;50104;52.002;4.688;2022-08-19T23:23:57;22.10;79.70
47546;DHT22;50104;52.002;4.688;2022-08-19T23:28:58;22.00;79.30
47546;DHT22;50104;52.002;4.688;2022-08-19T23:34:18;21.90;79.50
47546;DHT22;50104;52.002;4.688;2022-08-19T23:39:18;21.80;79.40
47546;DHT22;50104;52.002;4.688;2022-08-19T23:44:19;21.80;79.30
47546;DHT22;50104;52.002;4.688;2022-08-19T23:49:20;21.70;79.70
47546;DHT22;50104;52.002;4.688;2022-08-19T23:54:22;21.60;79.90
47546;DHT22;50104;52.002;4.688;2022-08-19T23:59:23;21.60;80.10
